Time;durP1;ratioP1;P1;durP2;ratioP2;P2;SDS_P1;SDS_P2;PMS_P1;PMS_P2;Temp;Humidity;BMP_temperature;BMP_pressure;BME280_temperature;BME280_humidity;BME280_pressure;Samples;Min_cycle;Max_cycle;Signal;HPM_P1;HPM_P2
2023/02/05 00:00:52;;;;;;;9.00;4.68;;;;;;;1.18;76.03;99454.84;4981216;28;20030;-95
2023/02/05 00:03:17;;;;;;;6.10;4.18;;;;;;;1.09;76.08;99462.22;4964619;28;20037;-95
2023/02/05 00:05:43;;;;;;;6.13;3.78;;;;;;;1.07;75.69;99480.16;4981642;28;20471;-95
2023/02/05 00:08:08;;;;;;;4.35;3.40;;;;;;;1.18;75.77;99503.44;4984520;28;20087;-95
2023/02/05 00:10:34;;;;;;;4.32;3.22;;;;;;;1.20;75.31;99503.19;4984395;28;20032;-95
2023/02/05 00:12:59;;;;;;;5.55;3.40;;;;;;;1.06;74.71;99499.75;4984876;28;20041;-94
2023/02/05 00:15:25;;;;;;;5.40;3.13;;;;;;;1.07;74.56;99484.66;4984159;28;20049;-95
2023/02/05 00:17:50;;;;;;;3.85;2.67;;;;;;;0.87;75.45;99492.56;4968918;28;20034;-95
2023/02/05 00:20:16;;;;;;;4.38;3.22;;;;;;;0.94;75.22;99496.06;4984150;28;20026;-95
2023/02/05 00:22:42;;;;;;;5.13;2.83;;;;;;;0.79;75.65;99497.06;4983987;28;20025;-95
2023/02/05 00:25:07;;;;;;;3.20;2.60;;;;;;;0.72;75.33;99484.81;4984430;28;20037;-94
2023/02/05 00:27:33;;;;;;;3.83;2.83;;;;;;;0.78;75.08;99486.66;4984334;28;20096;-94
2023/02/05 00:29:58;;;;;;;3.53;2.33;;;;;;;0.71;75.09;99488.50;4983720;28;20029;-94
2023/02/05 00:32:23;;;;;;;3.50;2.00;;;;;;;0.82;75.01;99516.22;4983402;28;20030;-94
2023/02/05 00:34:49;;;;;;;2.30;1.90;;;;;;;0.75;75.63;99508.28;4984494;28;20057;-94
2023/02/05 00:37:15;;;;;;;3.08;2.00;;;;;;;0.89;75.04;99522.34;4983526;28;20120;-95
2023/02/05 00:39:40;;;;;;;3.35;2.22;;;;;;;0.59;75.44;99491.72;4984686;28;20034;-94
2023/02/05 00:42:06;;;;;;;2.88;2.17;;;;;;;0.73;74.10;99510.31;4983686;28;20481;-94
2023/02/05 00:44:31;;;;;;;3.50;2.60;;;;;;;0.70;75.01;99516.00;4984738;28;20014;-94
2023/02/05 00:46:56;;;;;;;2.47;1.88;;;;;;;0.63;74.04;99499.28;4983975;28;20029;-94
2023/02/05 00:49:22;;;;;;;2.55;2.15;;;;;;;0.48;75.38;99502.06;4984309;28;20105;-94
2023/02/05 00:51:48;;;;;;;3.50;2.45;;;;;;;0.48;76.50;99510.00;4983318;28;20037;-94
2023/02/05 00:54:13;;;;;;;3.90;2.38;;;;;;;0.62;75.39;99524.13;4983684;28;20088;-94
2023/02/05 00:56:39;;;;;;;3.35;2.47;;;;;;;0.73;75.22;99534.16;4983728;28;20028;-94
2023/02/05 00:59:04;;;;;;;6.10;2.35;;;;;;;0.54;75.51;99523.31;4983389;28;20030;-95
2023/02/05 01:01:30;;;;;;;2.42;2.08;;;;;;;0.51;76.25;99513.09;4982622;28;20026;-95
2023/02/05 01:03:56;;;;;;;3.20;2.50;;;;;;;0.63;74.50;99539.84;4983041;28;20029;-94
2023/02/05 01:06:22;;;;;;;2.95;2.17;;;;;;;0.55;75.34;99535.53;4983736;28;20022;-94
2023/02/05 01:08:48;;;;;;;3.72;2.38;;;;;;;0.48;75.65;99516.16;4983753;28;20037;-94
2023/02/05 01:11:14;;;;;;;4.22;2.42;;;;;;;0.31;75.73;99528.09;4982513;28;20022;-94
2023/02/05 01:13:39;;;;;;;3.55;2.45;;;;;;;0.33;77.08;99534.84;4983517;28;20403;-95
2023/02/05 01:16:07;;;;;;;3.10;2.13;;;;;;;0.39;76.96;99552.59;4983541;28;20026;-94
2023/02/05 01:18:32;;;;;;;2.95;2.20;;;;;;;0.36;76.38;99538.94;4982449;28;20042;-94
2023/02/05 01:20:59;;;;;;;2.90;2.00;;;;;;;0.44;76.65;99575.03;4982968;28;20396;-94
2023/02/05 01:23:26;;;;;;;3.20;2.53;;;;;;;0.16;76.42;99555.53;4983384;28;20385;-95
2023/02/05 01:25:51;;;;;;;3.20;2.17;;;;;;;0.23;76.21;99565.34;4984151;28;20041;-93
2023/02/05 01:28:17;;;;;;;4.13;2.78;;;;;;;0.28;74.59;99555.78;4982951;28;20060;-93
2023/02/05 01:31:08;;;;;;;3.53;2.65;;;;;;;0.44;75.33;99597.03;4983394;28;20026;-94
2023/02/05 01:33:35;;;;;;;3.35;2.20;;;;;;;0.29;72.95;99586.56;4978852;28;20035;-94
2023/02/05 01:36:01;;;;;;;4.47;3.00;;;;;;;0.23;73.55;99584.72;4947416;28;20030;-94
2023/02/05 01:38:26;;;;;;;4.50;2.95;;;;;;;0.12;73.69;99596.63;4962445;28;20556;-94
2023/02/05 01:40:52;;;;;;;5.10;2.88;;;;;;;0.19;73.29;99618.69;4946572;28;20040;-93
2023/02/05 01:43:17;;;;;;;4.30;2.80;;;;;;;-0.20;75.02;99571.63;4946554;28;20030;-95
2023/02/05 01:45:49;;;;;;;5.25;3.00;;;;;;;-0.10;73.95;99587.16;4962690;28;20030;-93
2023/02/05 01:48:18;;;;;;;3.78;3.03;;;;;;;-0.18;74.88;99577.53;4963182;28;20077;-94
2023/02/05 01:50:46;;;;;;;4.80;3.00;;;;;;;-0.21;74.69;99593.78;4994854;28;20038;-94
2023/02/05 01:53:20;;;;;;;4.93;2.75;;;;;;;-0.09;73.76;99610.75;4961938;28;20035;-94
2023/02/05 01:55:56;;;;;;;5.38;3.20;;;;;;;-0.28;74.61;99608.81;4946937;28;20023;-94
2023/02/05 01:58:24;;;;;;;5.05;3.00;;;;;;;-0.31;75.48;99625.88;4962078;28;20161;-95
2023/02/05 02:00:51;;;;;;;5.15;3.30;;;;;;;-0.31;75.25;99610.00;4961994;28;20115;-94
2023/02/05 02:03:19;;;;;;;9.15;6.68;;;;;;;-0.13;74.68;99624.59;4962372;28;20022;-93
2023/02/05 02:05:44;;;;;;;4.38;3.15;;;;;;;-0.10;74.49;99654.13;5014692;28;20033;-93
2023/02/05 02:08:13;;;;;;;4.97;2.97;;;;;;;-0.26;74.36;99628.75;4982176;28;20408;-93
2023/02/05 02:10:41;;;;;;;7.18;3.42;;;;;;;-0.33;74.52;99617.31;4982945;28;20026;-94
2023/02/05 02:13:08;;;;;;;4.07;2.88;;;;;;;-0.10;73.32;99656.78;4998409;28;20037;-93
2023/02/05 02:15:38;;;;;;;8.35;3.40;;;;;;;-0.09;73.19;99657.59;4982693;28;20026;-94
2023/02/05 02:20:48;;;;;;;4.13;2.90;;;;;;;-0.39;74.13;99662.22;5001094;28;20032;-94
2023/02/05 02:23:25;;;;;;;7.60;3.47;;;;;;;-0.26;74.73;99684.31;4997995;28;20022;-94
2023/02/05 02:26:20;;;;;;;3.85;2.78;;;;;;;-0.23;74.72;99683.13;5014331;28;20564;-94
2023/02/05 02:28:59;;;;;;;6.55;3.72;;;;;;;-0.35;74.85;99674.91;5014894;28;20057;-95
2023/02/05 02:31:36;;;;;;;6.30;3.40;;;;;;;-0.18;74.38;99709.03;4982029;28;20022;-94
2023/02/05 02:34:08;;;;;;;6.28;4.18;;;;;;;-0.67;73.57;99697.34;4998414;28;20441;-94
2023/02/05 02:36:43;;;;;;;15.98;3.75;;;;;;;-0.67;73.02;99698.16;5013591;28;20501;-94
2023/02/05 02:39:12;;;;;;;5.78;3.65;;;;;;;-0.82;74.01;99711.44;4981687;28;20112;-93
2023/02/05 02:41:45;;;;;;;6.43;3.75;;;;;;;-0.79;73.18;99710.22;4998193;28;20125;-94
2023/02/05 02:44:37;;;;;;;6.32;4.28;;;;;;;-0.77;73.23;99728.56;4997997;28;20032;-94
2023/02/05 02:47:06;;;;;;;6.03;3.40;;;;;;;-1.01;73.36;99714.66;5014269;28;20018;-94
2023/02/05 02:49:49;;;;;;;5.05;3.45;;;;;;;-0.89;73.24;99702.63;4982047;28;20125;-95
2023/02/05 02:52:18;;;;;;;6.60;3.95;;;;;;;-0.97;73.31;99717.75;4981567;28;20496;-94
2023/02/05 02:54:46;;;;;;;6.15;3.65;;;;;;;-0.95;73.67;99726.34;4981359;28;20026;-93
2023/02/05 02:57:11;;;;;;;4.60;3.30;;;;;;;-0.98;71.63;99716.91;4981813;28;20064;-94
2023/02/05 02:59:37;;;;;;;5.53;3.53;;;;;;;-0.94;74.13;99741.97;4993572;28;20080;-94
2023/02/05 03:02:05;;;;;;;6.10;3.65;;;;;;;-0.90;73.06;99747.72;5017798;28;20029;-94
2023/02/05 03:04:33;;;;;;;5.40;3.58;;;;;;;-1.13;72.46;99727.53;5001236;28;20021;-94
2023/02/05 03:07:21;;;;;;;6.50;3.72;;;;;;;-1.19;72.49;99738.81;5000683;28;20124;-94
2023/02/05 03:09:46;;;;;;;5.00;4.07;;;;;;;-0.90;72.97;99760.94;5020164;28;20418;-95
2023/02/05 03:12:12;;;;;;;4.90;3.42;;;;;;;-0.94;73.82;99762.31;5034060;28;20025;-95
2023/02/05 03:14:39;;;;;;;4.30;3.47;;;;;;;-1.08;73.94;99753.38;5001312;28;20479;-94
2023/02/05 03:17:05;;;;;;;6.22;3.72;;;;;;;-1.01;73.18;99751.66;5032641;28;20415;-94
2023/02/05 03:19:31;;;;;;;6.93;3.78;;;;;;;-1.09;74.14;99786.91;5001356;28;20029;-94
2023/02/05 03:22:01;;;;;;;6.13;4.38;;;;;;;-1.09;72.87;99768.44;5016109;28;20053;-93
2023/02/05 03:24:27;;;;;;;6.95;4.57;;;;;;;-1.07;73.22;99762.97;5017532;28;20022;-94
2023/02/05 03:26:53;;;;;;;8.73;3.63;;;;;;;-1.13;74.45;99764.50;5016290;28;20480;-94
2023/02/05 03:29:27;;;;;;;5.45;3.97;;;;;;;-1.03;72.95;99759.75;5000491;28;20025;-94
2023/02/05 03:32:01;;;;;;;6.63;3.65;;;;;;;-0.75;73.46;99782.88;5016801;28;20035;-94
2023/02/05 03:34:31;;;;;;;6.35;3.65;;;;;;;-0.90;72.27;99795.31;5032898;28;20033;-94
2023/02/05 03:37:05;;;;;;;4.47;2.92;;;;;;;-0.79;73.06;99786.09;5032951;28;20029;-93
2023/02/05 03:39:42;;;;;;;7.00;3.58;;;;;;;-0.77;73.91;99808.69;5000759;28;20037;-94
2023/02/05 03:42:17;;;;;;;7.03;3.50;;;;;;;-0.80;73.42;99803.78;5036814;28;20413;-94
2023/02/05 03:45:14;;;;;;;6.55;3.95;;;;;;;-0.82;73.51;99809.25;5039104;28;20025;-94
2023/02/05 03:47:58;;;;;;;6.20;4.13;;;;;;;-0.63;72.55;99810.50;5036899;28;20065;-94
2023/02/05 03:50:30;;;;;;;5.55;3.67;;;;;;;-0.71;73.71;99805.31;5037310;28;20033;-94
2023/02/05 03:53:28;;;;;;;6.93;3.83;;;;;;;-0.63;73.17;99820.25;5004363;28;20495;-93
2023/02/05 03:56:02;;;;;;;7.88;3.80;;;;;;;-0.90;73.42;99803.22;4980635;28;20524;-93
2023/02/05 03:58:47;;;;;;;6.55;4.28;;;;;;;-0.75;73.48;99797.94;4948865;28;20041;-94
2023/02/05 04:01:13;;;;;;;6.10;3.92;;;;;;;-0.64;72.99;99829.22;4948737;28;20116;-94
2023/02/05 04:03:38;;;;;;;5.22;3.55;;;;;;;-0.90;72.55;99817.25;4964679;28;20065;-94
2023/02/05 04:06:07;;;;;;;6.80;3.08;;;;;;;-1.00;72.97;99813.25;4952366;28;20038;-96
2023/02/05 04:08:34;;;;;;;6.22;3.40;;;;;;;-0.84;71.74;99816.53;4971972;28;20034;-96
2023/02/05 04:11:01;;;;;;;5.22;3.30;;;;;;;-0.86;71.62;99823.81;4971119;28;20073;-96
2023/02/05 04:13:26;;;;;;;6.90;3.40;;;;;;;-0.74;69.74;99861.22;4971895;28;20030;-96
2023/02/05 04:21:12;;;;;;;6.78;3.38;;;;;;;-1.20;71.29;99847.31;5051014;23;20065;-93
2023/02/05 04:23:38;;;;;;;4.85;3.60;;;;;;;-1.18;72.24;99847.94;4987567;28;20473;-92
2023/02/05 04:26:03;;;;;;;5.07;3.50;;;;;;;-1.25;71.08;99851.31;4987681;28;20029;-92
2023/02/05 04:28:29;;;;;;;5.40;3.42;;;;;;;-1.11;71.50;99862.09;4986653;28;20553;-93
2023/02/05 04:30:54;;;;;;;5.32;3.25;;;;;;;-1.18;71.30;99867.28;4987012;28;20026;-93
2023/02/05 04:33:20;;;;;;;4.40;3.05;;;;;;;-1.04;70.60;99885.00;4987501;28;20515;-93
2023/02/05 04:35:46;;;;;;;9.10;5.53;;;;;;;-0.99;70.83;99873.06;4987173;28;20025;-95
2023/02/05 04:38:12;;;;;;;5.78;3.70;;;;;;;-0.84;70.74;99906.41;4986747;28;20128;-94
2023/02/05 04:40:37;;;;;;;5.53;2.90;;;;;;;-1.07;69.61;99890.63;4986930;28;20044;-94
2023/02/05 04:43:03;;;;;;;6.70;3.22;;;;;;;-1.15;70.56;99889.88;4987407;28;20029;-94
2023/02/05 04:45:29;;;;;;;4.78;3.75;;;;;;;-1.06;69.35;99902.84;4987392;28;20084;-94
2023/02/05 04:47:56;;;;;;;4.20;3.40;;;;;;;-1.11;68.59;99907.84;4986597;28;20021;-94
2023/02/05 04:50:21;;;;;;;4.88;3.60;;;;;;;-1.17;70.03;99907.72;4987062;28;20112;-94
2023/02/05 04:52:47;;;;;;;4.18;2.90;;;;;;;-1.22;69.59;99911.72;4985901;28;20041;-94
2023/02/05 04:55:12;;;;;;;4.57;3.13;;;;;;;-1.23;69.78;99910.06;4986923;28;20026;-93
2023/02/05 04:57:38;;;;;;;4.00;2.90;;;;;;;-1.37;70.38;99904.75;4986295;28;20479;-94
2023/02/05 05:00:03;;;;;;;4.78;3.13;;;;;;;-1.39;72.42;99898.81;4987172;28;20029;-94
2023/02/05 05:02:29;;;;;;;6.82;3.58;;;;;;;-1.30;72.58;99914.44;4986387;28;20025;-94
2023/02/05 05:04:54;;;;;;;4.32;3.22;;;;;;;-1.37;72.72;99902.13;4986628;28;20036;-93
2023/02/05 05:07:20;;;;;;;4.63;3.00;;;;;;;-1.24;71.47;99923.47;4985612;28;20021;-93
2023/02/05 05:09:45;;;;;;;5.28;3.25;;;;;;;-1.46;70.82;99912.75;4986983;28;20546;-94
2023/02/05 05:12:11;;;;;;;4.65;2.67;;;;;;;-1.39;70.42;99914.69;4999991;28;20119;-94
2023/02/05 05:14:36;;;;;;;3.67;2.92;;;;;;;-1.53;70.09;99925.03;5022108;28;20017;-93
2023/02/05 05:17:02;;;;;;;5.35;3.00;;;;;;;-1.47;70.11;99937.53;4993699;28;20022;-93
2023/02/05 05:19:27;;;;;;;6.13;3.33;;;;;;;-1.47;68.58;99928.78;4986743;28;20029;-94
2023/02/05 05:21:53;;;;;;;3.85;2.65;;;;;;;-1.43;67.26;99946.75;4986935;28;20131;-94
2023/02/05 05:24:18;;;;;;;6.13;3.38;;;;;;;-1.70;67.84;99934.03;4986476;28;20028;-93
2023/02/05 05:26:45;;;;;;;3.92;2.80;;;;;;;-1.67;68.44;99952.19;4986294;28;20403;-94
2023/02/05 05:29:11;;;;;;;5.95;2.88;;;;;;;-2.01;71.69;99947.25;5002756;28;20021;-93
2023/02/05 05:31:36;;;;;;;4.05;2.45;;;;;;;-1.93;71.17;99948.03;4986010;28;20029;-93
2023/02/05 05:34:02;;;;;;;3.45;2.85;;;;;;;-1.80;70.00;99971.22;5001749;28;20037;-94
2023/02/05 05:36:27;;;;;;;4.00;2.92;;;;;;;-1.80;69.16;99960.66;4985963;28;20098;-94
2023/02/05 05:38:53;;;;;;;7.10;3.15;;;;;;;-1.85;69.29;99963.00;4987037;28;20037;-93
2023/02/05 05:44:07;;;;;;;3.72;2.75;;;;;;;-1.86;69.29;99983.28;5008134;28;20099;-93
2023/02/05 05:46:32;;;;;;;4.50;2.53;;;;;;;-1.85;68.44;99986.75;4986179;28;20033;-94
2023/02/05 05:48:58;;;;;;;4.03;2.70;;;;;;;-1.80;69.73;99986.25;4985975;28;20026;-94
2023/02/05 05:51:25;;;;;;;4.18;2.45;;;;;;;-1.91;68.34;99964.53;4986581;28;20132;-94
2023/02/05 05:53:50;;;;;;;6.70;3.47;;;;;;;-1.74;68.23;99977.59;4986159;28;20022;-94
2023/02/05 05:56:16;;;;;;;3.55;2.60;;;;;;;-1.73;67.79;100003.03;4985068;28;20420;-93
2023/02/05 05:58:42;;;;;;;3.75;2.55;;;;;;;-1.83;66.45;99976.84;5002734;28;20029;-93
2023/02/05 06:01:08;;;;;;;5.65;2.65;;;;;;;-1.93;66.49;99970.94;4985775;28;20025;-92
2023/02/05 06:03:33;;;;;;;3.78;2.70;;;;;;;-1.86;66.10;99985.94;4985788;28;20025;-92
2023/02/05 06:06:00;;;;;;;4.45;2.50;;;;;;;-1.71;64.62;99998.41;4984837;28;20056;-92
2023/02/05 06:08:26;;;;;;;4.80;2.63;;;;;;;-1.60;64.85;100007.75;5002473;28;20507;-95
2023/02/05 06:10:51;;;;;;;3.35;2.40;;;;;;;-1.49;65.68;100010.00;5001962;28;20109;-92
2023/02/05 06:13:17;;;;;;;3.58;2.35;;;;;;;-1.49;63.53;99997.63;4985124;28;20502;-93
2023/02/05 06:15:42;;;;;;;3.45;2.40;;;;;;;-1.33;64.34;100027.56;4986176;28;20032;-93
2023/02/05 06:18:08;;;;;;;3.35;2.33;;;;;;;-1.34;64.53;100005.59;4985324;28;20060;-93
2023/02/05 06:20:33;;;;;;;6.75;2.30;;;;;;;-1.38;64.03;100000.84;4985337;28;20044;-93
2023/02/05 06:22:59;;;;;;;3.22;2.10;;;;;;;-1.29;63.56;100018.28;4984794;28;20488;-92
2023/02/05 06:25:24;;;;;;;3.33;2.10;;;;;;;-1.20;63.70;100009.31;4985189;28;20112;-93
2023/02/05 06:27:50;;;;;;;2.97;2.35;;;;;;;-0.99;61.02;100026.34;4985200;28;20033;-92
2023/02/05 06:30:15;;;;;;;3.08;2.05;;;;;;;-1.14;61.25;100003.31;4985533;28;20029;-94
2023/02/05 06:32:41;;;;;;;3.63;2.08;;;;;;;-1.02;60.37;100007.19;5001298;28;20025;-93
2023/02/05 06:35:07;;;;;;;8.43;2.00;;;;;;;-0.92;60.17;100030.72;4985545;28;20029;-93
2023/02/05 06:37:32;;;;;;;3.50;2.53;;;;;;;-1.04;59.96;100011.84;4986283;28;20040;-93
2023/02/05 06:39:58;;;;;;;5.00;2.17;;;;;;;-0.99;59.10;100024.53;4985176;28;20033;-93
2023/02/05 06:42:23;;;;;;;3.60;2.10;;;;;;;-1.06;60.71;100040.25;4984620;28;20103;-93
2023/02/05 06:44:49;;;;;;;3.45;2.10;;;;;;;-1.13;60.01;100012.06;5002130;28;20025;-93
2023/02/05 06:47:14;;;;;;;6.75;2.30;;;;;;;-1.08;59.70;100020.28;4984798;28;20033;-93
2023/02/05 06:49:40;;;;;;;4.30;2.30;;;;;;;-1.00;60.47;100043.19;5001687;28;20017;-93
2023/02/05 06:52:05;;;;;;;2.65;1.90;;;;;;;-0.96;59.39;100020.69;4984724;28;20125;-92
2023/02/05 06:54:31;;;;;;;3.08;1.77;;;;;;;-0.86;57.11;100037.13;5000728;28;20022;-92
2023/02/05 06:56:56;;;;;;;3.30;2.00;;;;;;;-0.79;57.74;100032.78;4984111;28;20036;-92
2023/02/05 06:59:22;;;;;;;3.22;2.10;;;;;;;-0.69;56.06;100033.34;4983818;28;20029;-93
2023/02/05 07:01:47;;;;;;;3.58;2.40;;;;;;;-0.74;56.36;100048.94;4984139;28;20450;-92
2023/02/05 07:04:16;;;;;;;3.08;1.75;;;;;;;-0.69;56.39;100049.22;4984095;28;20021;-93
2023/02/05 07:06:41;;;;;;;2.88;1.85;;;;;;;-0.71;57.04;100043.28;4989587;28;20065;-93
2023/02/05 07:09:07;;;;;;;2.92;1.55;;;;;;;-0.60;56.10;100068.50;4984140;28;20036;-92
2023/02/05 07:11:32;;;;;;;7.55;1.65;;;;;;;-0.49;55.38;100068.06;4984035;28;20028;-93
2023/02/05 07:14:01;;;;;;;2.42;1.83;;;;;;;-0.46;57.45;100051.84;5000476;28;20026;-92
2023/02/05 07:16:28;;;;;;;2.92;1.83;;;;;;;-0.62;55.04;100054.63;4983945;28;20543;-93
2023/02/05 07:18:53;;;;;;;2.60;2.03;;;;;;;-0.49;55.49;100081.28;4983764;28;20025;-93
2023/02/05 07:21:19;;;;;;;2.85;1.60;;;;;;;-0.37;54.13;100070.25;4984174;28;20057;-93
2023/02/05 07:23:44;;;;;;;2.85;1.42;;;;;;;-0.45;55.50;100061.41;4984184;28;20483;-92
2023/02/05 07:26:12;;;;;;;3.53;1.80;;;;;;;-0.25;55.40;100084.69;4985441;28;20083;-94
2023/02/05 07:28:37;;;;;;;7.55;2.60;;;;;;;-0.43;56.53;100064.69;4985061;28;20034;-94
2023/02/05 07:31:16;;;;;;;2.80;2.00;;;;;;;-0.06;55.52;100094.78;4985603;28;20021;-94
2023/02/05 07:33:45;;;;;;;3.88;2.20;;;;;;;0.03;54.98;100078.81;4987755;28;20025;-96
2023/02/05 07:36:15;;;;;;;3.70;2.35;;;;;;;0.10;56.48;100093.75;5001828;28;20483;-96
2023/02/05 07:38:41;;;;;;;3.28;2.10;;;;;;;0.05;55.14;100090.03;4986361;28;20448;-95
2023/02/05 07:41:07;;;;;;;2.63;1.63;;;;;;;0.18;53.38;100108.75;4984311;28;20036;-96
2023/02/05 07:43:33;;;;;;;4.10;1.90;;;;;;;0.10;54.16;100099.06;4984656;28;20064;-95
2023/02/05 07:46:00;;;;;;;4.88;2.08;;;;;;;-0.01;55.16;100110.91;4985458;28;20026;-94
2023/02/05 07:48:26;;;;;;;5.20;2.65;;;;;;;0.09;58.13;100109.84;4984944;28;20071;-95
2023/02/05 07:50:51;;;;;;;3.72;2.22;;;;;;;0.07;53.08;100109.22;4984624;28;20485;-94
2023/02/05 07:53:19;;;;;;;3.88;1.90;;;;;;;0.16;52.72;100122.16;4985499;28;20052;-95
2023/02/05 07:55:45;;;;;;;4.05;2.17;;;;;;;-0.10;51.61;100116.50;4986517;28;20061;-95
2023/02/05 07:58:11;;;;;;;3.60;1.95;;;;;;;-0.09;51.76;100134.00;4985416;28;20503;-95
2023/02/05 08:00:36;;;;;;;3.33;1.98;;;;;;;-0.10;53.46;100119.16;4986221;28;20434;-95
2023/02/05 08:03:02;;;;;;;3.63;2.08;;;;;;;0.03;52.68;100131.75;4986138;28;20026;-94
2023/02/05 08:05:27;;;;;;;6.05;2.10;;;;;;;-0.13;51.08;100119.50;4986066;28;20033;-94
2023/02/05 08:07:53;;;;;;;5.07;2.50;;;;;;;-0.16;51.79;100125.16;4985377;28;20119;-93
2023/02/05 08:10:18;;;;;;;7.40;3.42;;;;;;;-0.30;50.07;100122.28;4984192;28;20033;-95
2023/02/05 08:12:44;;;;;;;3.13;2.40;;;;;;;-0.28;50.53;100135.34;4986670;28;20039;-93
2023/02/05 08:15:13;;;;;;;5.20;2.10;;;;;;;-0.28;52.44;100120.28;4989506;28;20037;-96
2023/02/05 08:17:38;;;;;;;3.63;2.13;;;;;;;-0.24;53.57;100140.09;4992424;28;20037;-96
2023/02/05 08:20:08;;;;;;;3.22;1.83;;;;;;;-0.12;52.77;100142.31;4985098;28;20033;-95
2023/02/05 08:22:36;;;;;;;2.92;1.80;;;;;;;-0.14;51.16;100128.44;4982873;28;20057;-96
2023/02/05 08:25:05;;;;;;;2.83;2.08;;;;;;;0.01;51.40;100153.09;4982523;28;20033;-96
2023/02/05 08:27:32;;;;;;;2.30;1.80;;;;;;;-0.09;51.36;100144.59;4986194;28;20034;-95
2023/02/05 08:29:57;;;;;;;3.25;1.90;;;;;;;0.07;53.05;100167.47;4985679;28;20056;-95
2023/02/05 08:32:26;;;;;;;4.03;2.30;;;;;;;-0.23;52.21;100144.41;4986080;28;20021;-95
2023/02/05 08:34:51;;;;;;;4.35;2.17;;;;;;;0.02;54.30;100146.78;4986264;28;20184;-96
2023/02/05 08:37:18;;;;;;;3.90;2.45;;;;;;;0.22;55.50;100163.00;5002606;28;20100;-95
2023/02/05 08:39:44;;;;;;;4.93;2.70;;;;;;;0.15;52.53;100149.66;4985344;28;20040;-96
2023/02/05 08:42:12;;;;;;;4.85;2.50;;;;;;;0.31;50.06;100143.38;4984673;28;20104;-96
2023/02/05 08:44:37;;;;;;;3.40;2.10;;;;;;;0.34;51.19;100177.44;4987699;28;20036;-95
2023/02/05 08:47:03;;;;;;;4.15;2.00;;;;;;;0.21;52.27;100153.41;4985553;28;20112;-96
2023/02/05 08:49:29;;;;;;;3.80;1.60;;;;;;;0.19;51.06;100172.13;4984106;28;20025;-96
2023/02/05 08:51:54;;;;;;;3.78;2.05;;;;;;;0.09;50.88;100166.25;4985375;28;20041;-95
2023/02/05 08:54:20;;;;;;;3.97;1.88;;;;;;;0.01;51.95;100161.03;5002379;28;20030;-96
2023/02/05 08:56:48;;;;;;;3.83;2.22;;;;;;;0.12;50.36;100178.31;4985292;28;20087;-95
2023/02/05 08:59:14;;;;;;;3.65;2.38;;;;;;;0.10;50.22;100167.91;4985806;28;20022;-96
2023/02/05 09:01:40;;;;;;;3.33;2.08;;;;;;;0.02;50.74;100178.56;4985577;28;20041;-93
2023/02/05 09:04:06;;;;;;;4.35;2.40;;;;;;;-0.15;53.16;100167.31;4985541;28;20480;-96
2023/02/05 09:06:32;;;;;;;1.75;1.55;;;;;;;0.13;52.21;100191.38;4985430;28;20026;-95
2023/02/05 09:08:57;;;;;;;4.60;1.80;;;;;;;0.28;52.41;100167.56;4985330;28;20022;-96
2023/02/05 09:11:25;;;;;;;4.60;2.50;;;;;;;0.47;52.90;100181.28;4984883;28;20112;-96
2023/02/05 09:13:56;;;;;;;4.38;1.98;;;;;;;0.51;52.12;100209.06;5001482;28;20028;-96
2023/02/05 09:16:21;;;;;;;4.45;1.85;;;;;;;0.54;51.65;100193.63;4985741;28;20060;-95
2023/02/05 09:18:47;;;;;;;2.15;1.85;;;;;;;0.54;49.73;100190.13;4984282;28;20033;-96
2023/02/05 09:21:13;;;;;;;3.47;2.13;;;;;;;0.46;50.46;100179.63;5000223;28;20053;-95
2023/02/05 09:23:38;;;;;;;2.80;1.67;;;;;;;0.69;51.53;100206.06;4983864;28;20473;-95
2023/02/05 09:26:04;;;;;;;3.67;2.53;;;;;;;0.56;50.87;100180.16;4984076;28;20065;-93
2023/02/05 09:28:30;;;;;;;3.15;2.05;;;;;;;0.75;50.10;100208.78;4983701;28;20025;-95
2023/02/05 09:30:55;;;;;;;3.33;2.10;;;;;;;0.43;52.14;100172.84;5001220;28;20469;-95
2023/02/05 09:33:21;;;;;;;5.30;2.30;;;;;;;0.50;53.00;100171.16;4984801;28;20010;-96
2023/02/05 09:35:46;;;;;;;4.95;1.83;;;;;;;0.74;53.12;100187.75;4983870;28;20026;-95
2023/02/05 09:38:12;;;;;;;3.25;1.90;;;;;;;0.65;51.34;100180.91;4983876;28;20056;-96
2023/02/05 09:40:53;;;;;;;2.47;1.75;;;;;;;0.72;51.02;100187.13;4983725;28;20125;-96
2023/02/05 09:43:49;;;;;;;2.40;1.73;;;;;;;0.54;50.00;100177.72;5000073;28;20477;-96
2023/02/05 09:46:20;;;;;;;3.42;1.80;;;;;;;0.53;52.72;100184.00;5003000;28;20484;-95
2023/02/05 09:48:53;;;;;;;4.82;1.95;;;;;;;0.34;50.83;100158.06;5016744;28;20025;-96
2023/02/05 09:51:20;;;;;;;;;;;;;;;0.42;52.08;100183.66;5001290;28;20030;-95
2023/02/05 09:53:52;;;;;;;5.43;2.08;;;;;;;0.15;52.32;100162.91;5000707;28;19913;-95
2023/02/05 09:56:18;;;;;;;2.72;1.88;;;;;;;0.34;50.61;100164.19;4983950;28;20523;-95
2023/02/05 09:58:48;;;;;;;3.78;2.00;;;;;;;0.19;52.74;100163.38;4983497;28;20038;-96
2023/02/05 10:01:59;;;;;;;4.22;2.15;;;;;;;0.42;51.33;100160.63;5062840;23;20063;-95
2023/02/05 10:04:26;;;;;;;3.03;2.05;;;;;;;0.40;50.93;100168.75;4918541;29;20036;-95
2023/02/05 10:07:00;;;;;;;7.07;2.80;;;;;;;0.39;52.43;100166.28;4902728;29;20040;-96
2023/02/05 10:09:39;;;;;;;3.00;2.08;;;;;;;0.32;51.61;100181.28;4918094;29;20044;-95
2023/02/05 10:12:29;;;;;;;4.40;2.40;;;;;;;0.43;54.07;100170.22;4917878;29;20071;-95
2023/02/05 10:15:09;;;;;;;4.28;2.80;;;;;;;0.49;51.65;100153.59;4902741;29;20079;-95
2023/02/05 10:18:02;;;;;;;2.90;2.20;;;;;;;0.71;53.09;100161.63;4917437;29;20503;-95
2023/02/05 10:20:49;;;;;;;4.45;2.65;;;;;;;0.45;52.13;100168.19;4902653;29;20067;-95
2023/02/05 10:23:16;;;;;;;4.75;2.47;;;;;;;0.46;52.80;100156.63;4918582;29;20031;-96
2023/02/05 10:26:08;;;;;;;2.90;2.00;;;;;;;0.59;51.55;100162.06;4902959;29;20046;-96
2023/02/05 10:28:45;;;;;;;4.75;2.97;;;;;;;0.89;50.97;100171.81;4903126;29;20122;-95
2023/02/05 10:31:23;;;;;;;3.67;2.55;;;;;;;0.96;50.75;100173.56;4919708;29;20123;-96
2023/02/05 10:33:57;;;;;;;4.57;2.42;;;;;;;0.91;50.02;100161.84;4918633;29;20044;-96
2023/02/05 10:36:25;;;;;;;2.97;2.25;;;;;;;0.91;50.17;100149.41;4940705;29;20039;-96
2023/02/05 10:38:53;;;;;;;3.85;2.30;;;;;;;0.85;52.09;100147.53;4956803;29;20035;-96
2023/02/05 10:41:21;;;;;;;4.72;2.50;;;;;;;1.15;51.72;100164.19;4956638;29;20122;-95
2023/02/05 10:43:48;;;;;;;2.95;1.90;;;;;;;0.95;50.00;100145.38;4956713;29;20036;-95
2023/02/05 10:46:14;;;;;;;3.00;2.15;;;;;;;1.08;51.05;100154.50;4940664;29;20035;-95
2023/02/05 10:48:55;;;;;;;3.47;2.25;;;;;;;0.98;51.85;100139.72;4941256;29;20031;-96
2023/02/05 10:51:29;;;;;;;3.50;2.15;;;;;;;1.30;51.09;100137.59;4924747;29;20587;-96
2023/02/05 10:53:59;;;;;;;2.85;1.90;;;;;;;1.12;50.10;100148.66;4941586;29;20494;-95
2023/02/05 10:56:25;;;;;;;5.18;2.33;;;;;;;1.01;50.44;100144.63;4942457;29;20039;-96
2023/02/05 10:58:55;;;;;;;3.50;2.03;;;;;;;1.00;50.42;100147.50;4956850;29;20035;-96
2023/02/05 11:01:31;;;;;;;3.10;1.95;;;;;;;1.20;51.10;100147.69;4926305;29;20059;-96
2023/02/05 11:04:14;;;;;;;2.75;2.10;;;;;;;1.21;48.70;100154.66;4941824;29;20027;-96
2023/02/05 11:06:50;;;;;;;3.38;1.92;;;;;;;1.06;48.81;100132.66;4926955;29;20031;-95
2023/02/05 11:09:25;;;;;;;3.45;1.90;;;;;;;1.24;48.25;100151.63;4924221;29;20042;-96
2023/02/05 11:11:55;;;;;;;3.72;2.55;;;;;;;1.34;50.54;100133.56;4956092;29;20034;-96
2023/02/05 11:14:42;;;;;;;4.25;2.53;;;;;;;1.28;47.75;100130.84;4941036;29;20031;-96
2023/02/05 11:17:31;;;;;;;3.78;2.45;;;;;;;1.52;49.79;100159.66;4942159;29;20039;-96
2023/02/05 11:20:00;;;;;;;2.85;2.20;;;;;;;1.14;49.27;100138.69;4940174;29;20098;-95
2023/02/05 11:22:34;;;;;;;5.15;2.72;;;;;;;1.19;49.79;100138.13;4925354;29;20042;-94
2023/02/05 11:25:05;;;;;;;2.35;1.52;;;;;;;1.39;47.68;100147.09;4925015;29;20041;-96
2023/02/05 11:27:37;;;;;;;3.20;1.88;;;;;;;1.21;46.82;100147.53;4940686;29;20093;-95
2023/02/05 11:30:34;;;;;;;2.95;1.73;;;;;;;1.27;47.13;100155.75;4956840;29;20066;-95
2023/02/05 11:33:21;;;;;;;2.92;2.00;;;;;;;1.29;46.28;100133.31;4924918;29;20039;-94
2023/02/05 11:35:56;;;;;;;3.08;1.77;;;;;;;1.35;45.40;100155.59;4956994;29;20125;-96
2023/02/05 11:38:29;;;;;;;3.05;2.10;;;;;;;0.94;48.26;100135.00;4957081;29;20055;-96
2023/02/05 11:40:58;;;;;;;2.60;1.77;;;;;;;0.84;48.00;100132.63;4925145;29;20438;-96
2023/02/05 11:43:29;;;;;;;2.67;1.85;;;;;;;0.75;48.28;100131.09;4925641;29;20130;-96
2023/02/05 11:45:55;;;;;;;3.90;2.03;;;;;;;0.93;49.28;100128.03;4923722;29;20023;-95
2023/02/05 11:48:26;;;;;;;3.67;1.73;;;;;;;1.18;46.32;100149.72;4925155;29;20035;-96
2023/02/05 11:50:54;;;;;;;4.10;1.92;;;;;;;1.05;47.79;100141.63;4925136;29;20093;-95
2023/02/05 11:53:24;;;;;;;5.03;2.47;;;;;;;1.19;47.94;100136.28;4941470;29;20054;-96